createdAt,value
2024-03-16T00:00:58.887Z,6.55
2024-03-16T00:03:27.484Z,4.53
2024-03-16T00:05:56.025Z,5.22
2024-03-16T00:08:24.589Z,2.45
2024-03-16T00:10:53.053Z,4.22
2024-03-16T00:13:21.483Z,3.25
2024-03-16T00:15:51.090Z,8.15
2024-03-16T00:18:19.816Z,4.20
2024-03-16T00:20:48.176Z,5.88
2024-03-16T00:23:16.665Z,7.78
2024-03-16T00:25:45.609Z,4.18
2024-03-16T00:28:14.454Z,4.32
2024-03-16T00:30:43.039Z,5.18
2024-03-16T00:33:11.437Z,7.93
2024-03-16T00:35:39.888Z,8.75
2024-03-16T00:38:08.272Z,6.00
2024-03-16T00:40:36.653Z,5.57
2024-03-16T00:43:05.643Z,3.78
2024-03-16T00:45:34.226Z,4.90
2024-03-16T00:48:05.437Z,4.80
2024-03-16T00:50:34.289Z,4.60
2024-03-16T00:53:02.916Z,3.47
2024-03-16T00:55:32.899Z,2.45
2024-03-16T00:58:01.517Z,3.88
2024-03-16T01:00:32.214Z,6.72
2024-03-16T01:03:03.166Z,7.55
2024-03-16T01:05:31.521Z,3.15
2024-03-16T01:08:00.078Z,5.82
2024-03-16T01:10:28.540Z,2.88
2024-03-16T01:12:56.965Z,4.55
2024-03-16T01:15:25.487Z,5.68
2024-03-16T01:17:54.004Z,2.67
2024-03-16T01:20:22.405Z,3.35
2024-03-16T01:22:50.800Z,3.25
2024-03-16T01:25:19.239Z,3.00
2024-03-16T01:27:47.657Z,4.93
2024-03-16T01:30:17.416Z,2.13
2024-03-16T01:32:45.818Z,4.63
2024-03-16T01:35:13.420Z,2.55
2024-03-16T01:37:41.776Z,2.65
2024-03-16T01:40:10.570Z,3.60
2024-03-16T01:42:39.041Z,3.25
2024-03-16T01:45:11.100Z,7.90
2024-03-16T01:47:40.106Z,3.35
2024-03-16T01:50:10.113Z,5.95
2024-03-16T01:52:38.789Z,5.25
2024-03-16T01:55:07.987Z,4.43
2024-03-16T01:57:36.527Z,4.53
2024-03-16T02:00:06.165Z,3.17
2024-03-16T02:02:34.692Z,3.65
2024-03-16T02:05:05.013Z,4.18
2024-03-16T02:07:33.441Z,5.60
2024-03-16T02:10:02.085Z,5.22
2024-03-16T02:12:30.527Z,2.60
2024-03-16T02:14:59.046Z,5.00
2024-03-16T02:17:27.537Z,3.08
2024-03-16T02:19:55.925Z,6.65
2024-03-16T02:22:27.343Z,4.90
2024-03-16T02:24:56.467Z,2.30
2024-03-16T02:27:26.209Z,2.30
2024-03-16T02:29:54.615Z,3.78
2024-03-16T02:32:23.033Z,3.75
2024-03-16T02:34:51.877Z,4.35
2024-03-16T02:37:21.161Z,2.50
2024-03-16T02:39:50.247Z,3.00
2024-03-16T02:42:18.838Z,3.97
2024-03-16T02:44:47.761Z,8.80
2024-03-16T02:47:16.118Z,4.15
2024-03-16T02:49:44.461Z,4.18
2024-03-16T02:52:14.105Z,5.90
2024-03-16T02:54:42.577Z,7.03
2024-03-16T02:57:11.000Z,6.55
2024-03-16T02:59:39.399Z,4.78
2024-03-16T03:02:07.868Z,10.07
2024-03-16T03:04:36.342Z,3.63
2024-03-16T03:07:05.561Z,7.30
2024-03-16T03:09:34.543Z,6.32
2024-03-16T03:12:03.928Z,4.05
2024-03-16T03:14:32.951Z,6.68
2024-03-16T03:17:01.665Z,6.13
2024-03-16T03:19:30.209Z,4.82
2024-03-16T03:21:58.753Z,5.35
2024-03-16T03:24:28.034Z,6.38
2024-03-16T03:26:56.588Z,8.88
2024-03-16T03:29:25.055Z,3.65
2024-03-16T03:31:54.926Z,6.22
2024-03-16T03:34:23.398Z,4.63
2024-03-16T03:36:51.772Z,7.25
2024-03-16T03:39:20.144Z,5.40
2024-03-16T03:41:48.524Z,9.20
2024-03-16T03:44:25.219Z,4.80
2024-03-16T03:46:56.093Z,9.35
2024-03-16T03:49:33.812Z,6.63
2024-03-16T03:52:05.534Z,5.72
2024-03-16T03:54:35.600Z,5.10
2024-03-16T03:57:05.066Z,6.28
2024-03-16T03:59:33.792Z,6.75
2024-03-16T04:02:02.227Z,6.45
2024-03-16T04:04:30.686Z,6.00
2024-03-16T04:06:59.168Z,4.38
2024-03-16T04:09:30.437Z,6.35
2024-03-16T04:11:58.979Z,7.90
2024-03-16T04:14:30.036Z,7.97
2024-03-16T04:16:58.482Z,7.03
2024-03-16T04:19:29.895Z,5.60
2024-03-16T04:21:58.472Z,5.28
2024-03-16T04:24:27.539Z,8.70
2024-03-16T04:26:59.019Z,5.18
2024-03-16T04:29:27.435Z,5.45
2024-03-16T04:31:55.864Z,7.95
2024-03-16T04:34:26.501Z,8.95
2024-03-16T04:36:57.833Z,7.47
2024-03-16T04:39:26.707Z,9.13
2024-03-16T04:41:58.343Z,6.30
2024-03-16T04:44:26.686Z,6.95
2024-03-16T04:46:55.783Z,5.10
2024-03-16T04:49:24.394Z,4.85
2024-03-16T04:51:52.806Z,7.75
2024-03-16T04:54:21.213Z,6.13
2024-03-16T04:56:49.642Z,5.95
2024-03-16T04:59:18.042Z,4.55
2024-03-16T05:01:46.746Z,5.05
2024-03-16T05:04:15.305Z,4.70
2024-03-16T05:06:43.711Z,6.78
2024-03-16T05:09:13.900Z,9.35
2024-03-16T05:11:42.333Z,5.45
2024-03-16T05:14:10.777Z,7.53
2024-03-16T05:16:39.263Z,7.97
2024-03-16T05:19:08.174Z,5.30
2024-03-16T05:21:36.834Z,10.35
2024-03-16T05:24:05.361Z,7.72
2024-03-16T05:26:35.289Z,5.90
2024-03-16T05:29:04.252Z,5.72
2024-03-16T05:31:33.335Z,4.88
2024-03-16T05:34:03.937Z,5.68
2024-03-16T05:36:32.517Z,8.50
2024-03-16T05:39:01.159Z,5.55
2024-03-16T05:41:29.698Z,7.18
2024-03-16T05:43:58.137Z,3.60
2024-03-16T05:46:26.683Z,4.07
2024-03-16T05:48:55.163Z,3.75
2024-03-16T05:51:23.541Z,4.25
2024-03-16T05:53:52.533Z,3.83
2024-03-16T05:56:20.944Z,1.83
2024-03-16T05:58:49.583Z,1.05
2024-03-16T06:01:18.397Z,3.38
2024-03-16T06:03:46.872Z,1.33
2024-03-16T06:06:15.355Z,1.50
2024-03-16T06:08:45.360Z,2.05
2024-03-16T06:11:13.872Z,1.77
2024-03-16T06:13:42.359Z,1.58
2024-03-16T06:16:10.806Z,0.90
2024-03-16T06:18:41.572Z,1.35
2024-03-16T06:21:11.991Z,0.75
2024-03-16T06:23:40.784Z,2.25
2024-03-16T06:26:17.831Z,0.80
2024-03-16T06:28:48.456Z,1.52
2024-03-16T06:31:24.639Z,1.42
2024-03-16T06:33:53.371Z,0.85
2024-03-16T06:36:22.689Z,1.40
2024-03-16T06:41:54.471Z,0.65
2024-03-16T06:44:22.926Z,2.08
2024-03-16T06:46:51.725Z,1.77
2024-03-16T06:49:44.196Z,0.65
2024-03-16T06:52:16.919Z,0.52
2024-03-16T06:54:51.450Z,1.52
2024-03-16T06:57:22.939Z,0.60
2024-03-16T06:59:51.717Z,0.65
2024-03-16T07:02:20.858Z,1.05
2024-03-16T07:05:03.223Z,1.25
2024-03-16T07:07:34.512Z,3.22
2024-03-16T07:10:06.930Z,0.75
2024-03-16T07:12:35.781Z,1.13
2024-03-16T07:15:07.105Z,0.95
2024-03-16T07:17:35.780Z,0.80
2024-03-16T07:20:06.896Z,0.90
2024-03-16T07:22:35.325Z,0.77
2024-03-16T07:25:03.769Z,1.95
2024-03-16T07:27:32.329Z,0.40
2024-03-16T07:30:01.160Z,0.40
2024-03-16T07:32:29.597Z,0.40
2024-03-16T07:34:58.114Z,1.55
2024-03-16T07:37:27.003Z,0.50
2024-03-16T07:39:55.434Z,0.50
2024-03-16T07:42:24.096Z,1.42
2024-03-16T07:44:52.882Z,2.28
2024-03-16T07:47:21.497Z,0.93
2024-03-16T07:49:49.970Z,0.50
2024-03-16T07:52:18.924Z,3.40
2024-03-16T07:54:47.518Z,0.52
2024-03-16T07:57:15.895Z,2.92
2024-03-16T07:59:44.309Z,1.10
2024-03-16T08:02:12.825Z,1.85
2024-03-16T08:04:41.912Z,2.20
2024-03-16T08:07:10.575Z,1.60
2024-03-16T08:09:39.051Z,1.85
2024-03-16T08:12:07.885Z,0.85
2024-03-16T08:14:36.909Z,1.38
2024-03-16T08:17:05.669Z,1.25
2024-03-16T08:19:34.145Z,2.67
2024-03-16T08:22:05.787Z,2.33
2024-03-16T08:24:37.275Z,4.07
2024-03-16T08:27:06.380Z,2.33
2024-03-16T08:29:34.871Z,2.72
2024-03-16T08:32:03.322Z,3.75
2024-03-16T08:34:31.945Z,4.47
2024-03-16T08:37:00.645Z,1.08
2024-03-16T08:39:29.242Z,2.47
2024-03-16T08:41:57.794Z,2.72
2024-03-16T08:44:26.411Z,1.73
2024-03-16T08:46:55.610Z,0.63
2024-03-16T08:49:24.686Z,2.90
2024-03-16T08:51:53.176Z,4.88
2024-03-16T08:54:21.684Z,1.95
2024-03-16T08:56:50.400Z,4.53
2024-03-16T08:59:18.898Z,3.25
2024-03-16T09:01:50.283Z,4.10
2024-03-16T09:04:19.212Z,4.45
2024-03-16T09:06:47.757Z,1.08
2024-03-16T09:09:17.542Z,2.45
2024-03-16T09:11:48.044Z,1.85
2024-03-16T09:14:18.038Z,1.48
2024-03-16T09:16:48.635Z,3.58
2024-03-16T09:19:17.145Z,5.50
2024-03-16T09:21:46.062Z,2.33
2024-03-16T09:24:14.473Z,3.42
2024-03-16T09:26:42.898Z,5.55
2024-03-16T09:29:11.493Z,2.25
2024-03-16T09:31:40.173Z,1.88
2024-03-16T09:34:09.703Z,1.10
2024-03-16T09:36:38.832Z,4.90
2024-03-16T09:39:11.590Z,1.27
2024-03-16T09:41:41.047Z,8.27
